Time;durP1;ratioP1;P1;durP2;ratioP2;P2;SDS_P1;SDS_P2;PMS_P1;PMS_P2;Temp;Humidity;BMP_temperature;BMP_pressure;BME280_temperature;BME280_humidity;BME280_pressure;Samples;Min_cycle;Max_cycle;Signal;HPM_P1;HPM_P2
2022/05/06 00:01:38;;;;;;;17.10;12.70;;;8.90;99.90;;;;;;5033575;28;20053;-64
2022/05/06 00:04:05;;;;;;;20.40;13.18;;;8.80;99.90;;;;;;5034520;28;20057;-65
2022/05/06 00:06:32;;;;;;;21.50;13.40;;;8.80;99.90;;;;;;5033179;28;20045;-65
2022/05/06 00:08:58;;;;;;;21.40;13.73;;;8.70;99.90;;;;;;5033677;28;20061;-64
2022/05/06 00:11:24;;;;;;;17.98;12.70;;;8.70;99.90;;;;;;5032381;28;20053;-63
2022/05/06 00:13:52;;;;;;;22.05;13.27;;;8.70;99.90;;;;;;5032446;28;20058;-65
2022/05/06 00:16:22;;;;;;;22.63;14.20;;;8.70;99.90;;;;;;5032477;28;20362;-64
2022/05/06 00:18:48;;;;;;;22.75;13.68;;;8.60;99.90;;;;;;5032491;28;20049;-63
2022/05/06 00:21:14;;;;;;;22.45;14.57;;;8.60;99.90;;;;;;5032073;28;20123;-63
2022/05/06 00:23:40;;;;;;;20.40;14.88;;;8.60;99.90;;;;;;5031304;28;20442;-64
2022/05/06 00:26:06;;;;;;;23.65;15.38;;;8.60;99.90;;;;;;5049769;28;20131;-66
2022/05/06 00:28:32;;;;;;;23.15;14.18;;;8.60;99.90;;;;;;5033261;28;20101;-64
2022/05/06 00:30:58;;;;;;;20.33;14.55;;;8.50;99.90;;;;;;5031111;28;20075;-63
2022/05/06 00:33:24;;;;;;;20.95;13.43;;;8.50;99.90;;;;;;5031580;28;20045;-64
2022/05/06 00:35:54;;;;;;;22.00;13.90;;;8.50;99.90;;;;;;5032386;28;20059;-66
2022/05/06 00:38:20;;;;;;;23.63;15.25;;;8.50;99.90;;;;;;5030807;28;20061;-64
2022/05/06 00:40:45;;;;;;;25.80;16.08;;;8.50;99.90;;;;;;5032132;28;20056;-64
2022/05/06 00:43:11;;;;;;;23.35;15.18;;;8.50;99.90;;;;;;5033802;28;20553;-65
2022/05/06 00:45:52;;;;;;;23.73;15.85;;;8.40;99.90;;;;;;5033290;28;20057;-64
2022/05/06 00:48:20;;;;;;;22.75;15.05;;;8.40;99.90;;;;;;5032922;28;20496;-64
2022/05/06 00:50:46;;;;;;;23.75;15.27;;;8.40;99.90;;;;;;5032033;28;20059;-64
2022/05/06 00:53:13;;;;;;;24.17;15.57;;;8.40;99.90;;;;;;5032881;28;20050;-64
2022/05/06 00:55:39;;;;;;;24.15;15.05;;;8.40;99.90;;;;;;5034090;28;20379;-64
2022/05/06 00:58:06;;;;;;;22.80;14.27;;;8.30;99.90;;;;;;5031796;28;20061;-64
2022/05/06 01:00:31;;;;;;;25.45;14.88;;;8.30;99.90;;;;;;5031139;28;20406;-66
2022/05/06 01:02:57;;;;;;;24.67;15.50;;;8.30;99.90;;;;;;5031144;28;20057;-64
2022/05/06 01:05:23;;;;;;;25.75;14.70;;;8.20;99.90;;;;;;5033640;28;20137;-64
2022/05/06 01:07:50;;;;;;;21.92;15.98;;;8.20;99.90;;;;;;5031290;28;20474;-64
2022/05/06 01:10:18;;;;;;;22.13;14.75;;;8.20;99.90;;;;;;5047686;28;20057;-65
2022/05/06 01:12:44;;;;;;;24.55;14.68;;;8.20;99.90;;;;;;5032955;28;20132;-63
2022/05/06 01:15:27;;;;;;;19.02;13.13;;;8.10;99.90;;;;;;5031524;28;20069;-63
2022/05/06 01:17:54;;;;;;;23.50;15.10;;;8.10;99.90;;;;;;5016093;28;20129;-64
2022/05/06 01:20:21;;;;;;;20.15;14.05;;;8.10;99.90;;;;;;5031722;28;20049;-65
2022/05/06 01:23:00;;;;;;;23.65;15.00;;;8.10;99.90;;;;;;5032581;28;20512;-65
2022/05/06 01:25:27;;;;;;;22.05;15.23;;;8.00;99.90;;;;;;5033627;28;20056;-64
2022/05/06 01:28:02;;;;;;;24.02;15.32;;;8.00;99.90;;;;;;5032267;28;20800;-64
2022/05/06 01:30:45;;;;;;;25.65;15.57;;;8.00;99.90;;;;;;5031598;28;20050;-64
2022/05/06 01:33:14;;;;;;;22.77;15.95;;;8.00;99.90;;;;;;5031503;28;20041;-64
2022/05/06 01:36:04;;;;;;;22.77;14.82;;;8.00;99.90;;;;;;5033517;28;20103;-65
2022/05/06 01:38:35;;;;;;;24.05;16.30;;;7.90;99.90;;;;;;5028623;28;20132;-65
2022/05/06 01:41:10;;;;;;;24.65;15.98;;;7.90;99.90;;;;;;5031748;28;20053;-65
2022/05/06 01:43:42;;;;;;;22.58;14.75;;;7.80;99.90;;;;;;5031242;28;20045;-64
2022/05/06 01:46:13;;;;;;;26.88;15.85;;;7.80;99.90;;;;;;5031225;28;20090;-64
2022/05/06 01:48:41;;;;;;;21.75;15.10;;;7.80;99.90;;;;;;5031381;28;20141;-65
2022/05/06 01:51:09;;;;;;;22.30;15.70;;;7.80;99.90;;;;;;5031651;28;20486;-64
2022/05/06 01:53:35;;;;;;;19.98;14.40;;;7.70;99.90;;;;;;5032481;28;20053;-65
2022/05/06 01:56:02;;;;;;;21.95;13.95;;;7.70;99.90;;;;;;5032233;28;20049;-64
2022/05/06 01:58:27;;;;;;;23.90;15.05;;;7.70;99.90;;;;;;5031058;28;20111;-63
2022/05/06 02:00:53;;;;;;;22.92;14.77;;;7.70;99.90;;;;;;5030664;28;20877;-63
2022/05/06 02:06:03;;;;;;;24.33;15.95;;;7.60;99.90;;;;;;5032910;28;20088;-63
2022/05/06 02:08:28;;;;;;;22.15;15.45;;;7.60;99.90;;;;;;5030424;28;20069;-64
2022/05/06 02:10:54;;;;;;;25.05;16.17;;;7.60;99.90;;;;;;5029458;28;20095;-63
2022/05/06 02:13:19;;;;;;;27.05;15.40;;;7.60;99.90;;;;;;5029668;28;20202;-63
2022/05/06 02:15:45;;;;;;;26.42;16.75;;;7.60;99.90;;;;;;5031184;28;20088;-66
2022/05/06 02:18:11;;;;;;;23.30;16.58;;;7.60;99.90;;;;;;5032023;28;20431;-63
2022/05/06 02:20:37;;;;;;;25.30;16.42;;;7.50;99.90;;;;;;5030061;28;20386;-65
2022/05/06 02:23:03;;;;;;;26.08;17.08;;;7.50;99.90;;;;;;5030574;28;20045;-64
2022/05/06 02:25:28;;;;;;;26.50;15.93;;;7.50;99.90;;;;;;5030947;28;20084;-66
2022/05/06 02:27:54;;;;;;;25.67;17.60;;;7.50;99.90;;;;;;5030488;28;20092;-64
2022/05/06 02:33:13;;;;;;;26.88;16.15;;;7.40;99.90;;;;;;5030677;28;20049;-65
2022/05/06 02:35:39;;;;;;;26.67;17.50;;;7.40;99.90;;;;;;5030012;28;20099;-64
2022/05/06 02:38:05;;;;;;;25.77;15.52;;;7.40;99.90;;;;;;5029277;28;20095;-66
2022/05/06 02:40:35;;;;;;;26.05;16.23;;;7.40;99.90;;;;;;5030503;28;20060;-64
2022/05/06 02:43:06;;;;;;;26.85;16.77;;;7.30;99.90;;;;;;5030401;28;20099;-64
2022/05/06 02:45:35;;;;;;;19.92;14.80;;;7.20;99.90;;;;;;5018946;28;20198;-64
2022/05/06 02:48:01;;;;;;;30.38;17.52;;;7.20;99.90;;;;;;5030499;28;20053;-65
2022/05/06 02:50:27;;;;;;;25.23;16.88;;;7.20;99.90;;;;;;5031604;28;20068;-64
2022/05/06 02:52:52;;;;;;;24.63;16.58;;;7.10;99.90;;;;;;5029627;28;20061;-64
2022/05/06 02:55:19;;;;;;;22.58;15.50;;;7.10;99.90;;;;;;5029875;28;20057;-65
2022/05/06 02:57:45;;;;;;;25.83;15.75;;;7.10;99.90;;;;;;5031623;28;20136;-63
2022/05/06 03:00:11;;;;;;;24.45;16.40;;;7.00;99.90;;;;;;5030623;28;20187;-65
2022/05/06 03:02:37;;;;;;;24.75;17.48;;;7.00;99.90;;;;;;5013170;28;20053;-64
2022/05/06 03:05:03;;;;;;;24.85;16.08;;;7.00;99.90;;;;;;5030846;28;20382;-63
2022/05/06 03:07:29;;;;;;;24.27;17.40;;;7.00;99.90;;;;;;5030561;28;20100;-64
2022/05/06 03:09:54;;;;;;;26.50;17.50;;;7.00;99.90;;;;;;5031459;28;20126;-64
2022/05/06 03:12:23;;;;;;;28.83;16.13;;;7.00;99.90;;;;;;5030236;28;20447;-65
2022/05/06 03:14:49;;;;;;;28.13;17.23;;;6.90;99.90;;;;;;5030197;28;20056;-65
2022/05/06 03:17:14;;;;;;;25.67;16.67;;;6.90;99.90;;;;;;5030138;28;20061;-64
2022/05/06 03:19:40;;;;;;;25.65;16.60;;;6.90;99.90;;;;;;5031379;28;20061;-64
2022/05/06 03:22:07;;;;;;;27.52;18.00;;;6.90;99.90;;;;;;5031304;28;20053;-64
2022/05/06 03:24:32;;;;;;;26.27;17.52;;;6.90;99.90;;;;;;5031198;28;20053;-65
2022/05/06 03:26:58;;;;;;;24.48;16.52;;;6.90;99.90;;;;;;5012087;28;20045;-64
2022/05/06 03:29:24;;;;;;;22.90;16.15;;;6.80;99.90;;;;;;5028048;28;20049;-65
2022/05/06 03:31:51;;;;;;;24.48;16.67;;;6.70;99.90;;;;;;5029740;28;20133;-63
2022/05/06 03:34:17;;;;;;;27.15;18.23;;;6.80;99.90;;;;;;5030646;28;20195;-65
2022/05/06 03:36:44;;;;;;;27.55;18.98;;;6.70;99.90;;;;;;5014008;28;20053;-65
2022/05/06 03:39:10;;;;;;;24.13;15.57;;;6.70;99.90;;;;;;5030816;28;20088;-65
2022/05/06 03:41:36;;;;;;;25.80;16.58;;;6.60;99.90;;;;;;5030131;28;20065;-64
2022/05/06 03:44:02;;;;;;;27.48;17.73;;;6.60;99.90;;;;;;5030842;28;20382;-64
2022/05/06 03:46:27;;;;;;;25.30;17.70;;;6.60;99.90;;;;;;5031502;28;20049;-64
2022/05/06 03:48:53;;;;;;;24.67;17.10;;;6.60;99.90;;;;;;5030840;28;20045;-65
2022/05/06 03:51:21;;;;;;;24.52;16.20;;;6.50;99.90;;;;;;5030328;28;20160;-65
2022/05/06 03:53:52;;;;;;;25.58;16.05;;;6.50;99.90;;;;;;5030487;28;20496;-65
2022/05/06 03:56:18;;;;;;;22.35;16.30;;;6.50;99.90;;;;;;5031225;28;20053;-64
2022/05/06 03:58:44;;;;;;;23.08;15.90;;;6.50;99.90;;;;;;5032110;28;20053;-63
2022/05/06 04:01:11;;;;;;;25.60;16.17;;;6.50;99.90;;;;;;5033664;28;20516;-63
2022/05/06 04:03:38;;;;;;;27.33;17.02;;;6.40;99.90;;;;;;5033430;28;20445;-63
2022/05/06 04:06:04;;;;;;;28.05;17.63;;;6.50;99.90;;;;;;5032950;28;20095;-63
2022/05/06 04:08:30;;;;;;;27.88;17.02;;;6.50;99.90;;;;;;5032691;28;20049;-63
2022/05/06 04:10:55;;;;;;;26.38;17.50;;;6.50;99.90;;;;;;5031602;28;20053;-64
2022/05/06 04:13:21;;;;;;;27.55;17.52;;;6.50;99.90;;;;;;5016909;28;20045;-64
2022/05/06 04:15:47;;;;;;;25.35;16.77;;;6.50;99.90;;;;;;5034504;28;20057;-65
2022/05/06 04:18:13;;;;;;;29.27;18.55;;;6.50;99.90;;;;;;5032946;28;20502;-64
2022/05/06 04:23:29;;;;;;;30.08;17.02;;;6.50;99.90;;;;;;5033421;28;20049;-64
2022/05/06 04:25:58;;;;;;;25.25;16.90;;;6.50;99.90;;;;;;5032519;28;20095;-65
2022/05/06 04:28:25;;;;;;;25.00;17.13;;;6.60;99.90;;;;;;5030978;28;20132;-65
2022/05/06 04:30:52;;;;;;;29.23;16.58;;;6.50;99.90;;;;;;5032010;28;20057;-65
2022/05/06 04:33:24;;;;;;;28.15;16.92;;;6.60;99.90;;;;;;5034351;28;20081;-65
2022/05/06 04:35:50;;;;;;;;;;;6.60;99.90;;;;;;5033430;28;20508;-64
2022/05/06 04:38:16;;;;;;;30.08;18.05;;;6.70;99.90;;;;;;5033690;28;20184;-66
2022/05/06 04:40:42;;;;;;;22.35;15.35;;;6.60;99.90;;;;;;5033839;28;20068;-64
2022/05/06 04:43:09;;;;;;;24.58;17.42;;;6.70;99.90;;;;;;5033148;28;20053;-64
2022/05/06 04:45:38;;;;;;;25.17;17.08;;;6.80;99.90;;;;;;5033842;28;20088;-66
2022/05/06 04:48:08;;;;;;;22.15;15.07;;;6.80;99.90;;;;;;5033022;28;20092;-64
2022/05/06 04:50:35;;;;;;;27.63;17.25;;;6.80;99.90;;;;;;5032901;28;20060;-64
2022/05/06 04:53:01;;;;;;;23.23;15.88;;;6.90;99.90;;;;;;5033100;28;20056;-64
2022/05/06 04:55:27;;;;;;;27.50;18.63;;;6.90;99.90;;;;;;5031544;28;20406;-65
2022/05/06 04:57:53;;;;;;;26.27;17.40;;;6.90;99.90;;;;;;5033133;28;20163;-64
2022/05/06 05:00:21;;;;;;;24.38;16.60;;;6.90;99.90;;;;;;5032857;28;20048;-66
2022/05/06 05:02:46;;;;;;;25.27;16.80;;;6.90;99.90;;;;;;5032457;28;20053;-64
2022/05/06 05:05:12;;;;;;;26.98;17.25;;;7.00;99.90;;;;;;5031207;28;20375;-66
2022/05/06 05:07:38;;;;;;;28.73;18.42;;;7.10;99.90;;;;;;5031690;28;20049;-65
2022/05/06 05:10:04;;;;;;;29.45;18.83;;;7.30;99.90;;;;;;5030259;28;20049;-65
2022/05/06 05:12:31;;;;;;;41.92;25.13;;;7.40;99.90;;;;;;5032585;28;20055;-64
2022/05/06 05:14:57;;;;;;;45.67;26.35;;;7.50;99.90;;;;;;5031472;28;20110;-65
2022/05/06 05:17:25;;;;;;;55.60;24.80;;;7.60;99.90;;;;;;5014511;28;20115;-65
2022/05/06 05:19:51;;;;;;;48.78;24.70;;;7.70;99.90;;;;;;5030627;28;20049;-66
2022/05/06 05:22:19;;;;;;;61.80;24.55;;;7.80;99.90;;;;;;5031214;28;20143;-65
2022/05/06 05:24:46;;;;;;;43.83;25.45;;;7.80;99.90;;;;;;5031343;28;20053;-65
2022/05/06 05:27:14;;;;;;;39.35;23.33;;;7.80;99.90;;;;;;5029689;28;20061;-65
2022/05/06 05:29:40;;;;;;;45.20;22.67;;;7.90;99.90;;;;;;5030323;28;20536;-63
2022/05/06 05:32:07;;;;;;;36.72;21.25;;;8.00;99.90;;;;;;5030087;28;20049;-65
2022/05/06 05:34:32;;;;;;;36.78;20.10;;;8.10;99.90;;;;;;5029112;28;20152;-65
2022/05/06 05:36:58;;;;;;;32.60;19.85;;;8.30;99.90;;;;;;5030059;28;20129;-63
2022/05/06 05:39:24;;;;;;;35.13;18.08;;;8.40;99.90;;;;;;5031815;28;20076;-64
2022/05/06 05:41:49;;;;;;;30.70;16.52;;;8.60;99.90;;;;;;5028006;28;20086;-65
2022/05/06 05:49:44;;;;;;;45.63;16.77;;;8.90;99.90;;;;;;5033179;28;20088;-66
2022/05/06 05:52:10;;;;;;;23.92;16.13;;;9.10;99.90;;;;;;5031595;28;20508;-64
2022/05/06 05:54:36;;;;;;;42.00;15.75;;;9.20;99.90;;;;;;5032285;28;20056;-63
2022/05/06 05:57:03;;;;;;;25.42;15.10;;;9.20;99.90;;;;;;5033167;28;20508;-66
2022/05/06 05:59:29;;;;;;;27.55;15.15;;;;;;;;;;5031245;28;20041;-65
2022/05/06 06:01:56;;;;;;;40.92;16.27;;;9.40;99.90;;;;;;5029675;28;20468;-66
2022/05/06 06:04:22;;;;;;;27.58;15.32;;;9.50;99.90;;;;;;5024969;28;20049;-65
2022/05/06 06:06:47;;;;;;;36.75;16.10;;;9.50;99.90;;;;;;5025895;28;20091;-66
2022/05/06 06:09:13;;;;;;;21.73;14.30;;;9.60;99.90;;;;;;5030096;28;20046;-64
2022/05/06 06:11:39;;;;;;;22.40;15.30;;;9.60;99.90;;;;;;5029378;28;20056;-64
2022/05/06 06:14:05;;;;;;;22.67;13.52;;;9.70;99.90;;;;;;5047300;28;20057;-64
2022/05/06 06:16:31;;;;;;;20.40;13.82;;;9.80;99.90;;;;;;5030042;28;20049;-65
2022/05/06 06:18:58;;;;;;;27.05;15.32;;;9.90;99.90;;;;;;5030617;28;20499;-65
2022/05/06 06:21:25;;;;;;;24.33;13.55;;;10.00;99.90;;;;;;5030360;28;20064;-63
2022/05/06 06:23:51;;;;;;;22.02;13.15;;;10.10;99.90;;;;;;5031331;28;20053;-65
2022/05/06 06:26:16;;;;;;;23.90;14.43;;;10.10;99.90;;;;;;5031821;28;20187;-63
2022/05/06 06:28:42;;;;;;;21.58;12.73;;;10.20;99.90;;;;;;5031220;28;20141;-64
2022/05/06 06:31:08;;;;;;;21.23;13.95;;;10.30;99.90;;;;;;5028301;28;20049;-64
2022/05/06 06:33:37;;;;;;;27.55;14.43;;;10.40;99.90;;;;;;5031526;28;20057;-64
2022/05/06 06:36:04;;;;;;;25.85;14.48;;;10.40;99.90;;;;;;5032798;28;20053;-64
2022/05/06 06:38:30;;;;;;;25.77;14.20;;;10.50;99.90;;;;;;5030461;28;20060;-62
2022/05/06 06:40:55;;;;;;;24.85;14.32;;;10.60;99.90;;;;;;5032518;28;20136;-64
2022/05/06 06:43:21;;;;;;;31.00;16.02;;;10.70;99.90;;;;;;5030264;28;20049;-65
2022/05/06 06:45:47;;;;;;;27.58;15.98;;;10.80;99.90;;;;;;5029537;28;20049;-67
2022/05/06 06:48:13;;;;;;;34.72;16.83;;;10.90;99.90;;;;;;5030259;28;20462;-64
2022/05/06 06:50:41;;;;;;;27.25;16.58;;;10.90;99.90;;;;;;5030717;28;20072;-64
2022/05/06 06:53:07;;;;;;;28.80;18.45;;;10.90;99.90;;;;;;5031659;28;20092;-67
2022/05/06 06:55:32;;;;;;;26.30;17.60;;;11.00;99.90;;;;;;5031511;28;20045;-64
2022/05/06 06:57:58;;;;;;;33.63;19.67;;;11.00;99.90;;;;;;5031345;28;20045;-66
2022/05/06 07:00:23;;;;;;;35.85;19.55;;;11.00;99.90;;;;;;5029732;28;20144;-64
2022/05/06 07:02:49;;;;;;;32.10;19.35;;;11.00;99.90;;;;;;5030222;28;20057;-65
2022/05/06 07:05:15;;;;;;;35.10;21.50;;;11.00;99.90;;;;;;5030957;28;20048;-66
2022/05/06 07:13:10;;;;;;;31.48;20.95;;;11.30;99.90;;;;;;5031056;28;20054;-64
2022/05/06 07:15:35;;;;;;;34.88;22.13;;;11.20;99.90;;;;;;5031801;28;20053;-64
2022/05/06 07:18:01;;;;;;;36.33;22.50;;;11.30;99.90;;;;;;5030153;28;20354;-65
2022/05/06 07:20:27;;;;;;;36.22;22.50;;;11.40;99.90;;;;;;5030293;28;20057;-64
2022/05/06 07:22:53;;;;;;;37.55;22.17;;;11.50;99.90;;;;;;5030728;28;20076;-64
2022/05/06 07:25:19;;;;;;;35.70;22.92;;;11.50;99.90;;;;;;5031030;28;20142;-63
2022/05/06 07:27:45;;;;;;;33.15;21.33;;;11.50;99.90;;;;;;5029750;28;20577;-65
2022/05/06 07:30:11;;;;;;;34.10;21.98;;;11.60;99.90;;;;;;5030126;28;20116;-64
2022/05/06 07:32:39;;;;;;;35.65;23.48;;;11.70;99.90;;;;;;5031553;28;20053;-66
2022/05/06 07:35:05;;;;;;;33.92;22.15;;;11.80;99.90;;;;;;5033903;28;20117;-64
2022/05/06 07:37:33;;;;;;;33.97;21.58;;;12.00;99.90;;;;;;5022940;28;20056;-65
2022/05/06 07:40:00;;;;;;;33.97;21.05;;;12.10;99.90;;;;;;5034991;28;20093;-65
2022/05/06 07:42:28;;;;;;;35.83;22.50;;;12.20;99.90;;;;;;5035514;28;20046;-65
2022/05/06 07:44:55;;;;;;;34.15;21.88;;;12.20;99.90;;;;;;5034287;28;20513;-66
2022/05/06 07:47:20;;;;;;;33.55;21.85;;;12.30;99.90;;;;;;5033097;28;20118;-65
2022/05/06 07:49:46;;;;;;;35.08;21.17;;;12.30;99.90;;;;;;5033443;28;20061;-65
2022/05/06 07:52:11;;;;;;;31.38;21.30;;;12.40;99.90;;;;;;5029839;28;20049;-64
2022/05/06 07:54:37;;;;;;;32.13;20.42;;;12.50;99.90;;;;;;5034585;28;20057;-65
2022/05/06 07:57:03;;;;;;;27.95;18.60;;;12.50;99.90;;;;;;5033675;28;20494;-64
2022/05/06 07:59:28;;;;;;;29.40;19.85;;;12.70;99.90;;;;;;5035465;28;20053;-66
2022/05/06 08:04:40;;;;;;;26.08;18.17;;;12.90;99.90;;;;;;5035167;28;20107;-64
2022/05/06 08:07:08;;;;;;;25.85;17.15;;;13.10;99.90;;;;;;5035503;28;20057;-63
2022/05/06 08:09:34;;;;;;;31.02;19.42;;;13.30;99.90;;;;;;5034029;28;20088;-64
2022/05/06 08:12:00;;;;;;;28.70;18.80;;;13.40;99.90;;;;;;5034098;28;20054;-64
2022/05/06 08:14:26;;;;;;;25.48;16.73;;;13.50;99.90;;;;;;5033823;28;20054;-64
2022/05/06 08:16:52;;;;;;;22.38;15.10;;;13.80;99.90;;;;;;5033481;28;20053;-64
2022/05/06 08:19:19;;;;;;;20.67;14.32;;;13.90;99.90;;;;;;5030284;28;20398;-65
2022/05/06 08:21:45;;;;;;;20.75;14.52;;;14.10;99.90;;;;;;5032695;28;20482;-65
2022/05/06 08:24:12;;;;;;;21.05;13.65;;;14.10;99.90;;;;;;5014193;28;20061;-64
2022/05/06 08:26:37;;;;;;;19.88;13.60;;;14.30;99.90;;;;;;5031498;28;20059;-64
2022/05/06 08:29:04;;;;;;;19.10;14.00;;;14.50;99.90;;;;;;5013608;28;20499;-64
2022/05/06 08:31:32;;;;;;;18.55;12.85;;;14.70;99.90;;;;;;5016281;28;20077;-64
2022/05/06 08:33:58;;;;;;;17.52;11.80;;;14.70;99.90;;;;;;5034723;28;20107;-64
2022/05/06 08:36:24;;;;;;;18.33;12.82;;;14.80;99.90;;;;;;5034456;28;20494;-65
2022/05/06 08:38:49;;;;;;;17.25;12.07;;;15.00;99.90;;;;;;5032640;28;20119;-66
2022/05/06 08:41:15;;;;;;;15.52;12.00;;;15.10;99.90;;;;;;5032553;28;20486;-65
2022/05/06 08:43:41;;;;;;;13.15;9.90;;;15.20;99.90;;;;;;5032328;28;20053;-64
2022/05/06 08:51:39;;;;;;;12.55;9.93;;;15.20;99.90;;;;;;5032881;28;20053;-65
2022/05/06 08:54:05;;;;;;;12.55;9.80;;;15.40;99.90;;;;;;5034030;28;20128;-65
2022/05/06 08:56:31;;;;;;;14.45;10.77;;;15.40;99.90;;;;;;5029171;28;20382;-65
2022/05/06 08:58:59;;;;;;;10.88;8.80;;;15.50;99.90;;;;;;5033616;28;20115;-64
2022/05/06 09:01:25;;;;;;;12.63;10.25;;;15.50;99.90;;;;;;5032171;28;20485;-63
2022/05/06 09:03:51;;;;;;;13.88;9.57;;;15.50;99.90;;;;;;5033308;28;20057;-63
2022/05/06 09:06:18;;;;;;;12.43;9.50;;;15.50;99.90;;;;;;5032610;28;20061;-64
2022/05/06 09:08:45;;;;;;;10.95;9.13;;;15.50;99.90;;;;;;5032664;28;20074;-65
2022/05/06 09:11:11;;;;;;;12.20;9.30;;;15.70;99.90;;;;;;5031719;28;20076;-63
2022/05/06 09:13:49;;;;;;;10.30;8.35;;;15.60;99.90;;;;;;5032648;28;20136;-63
2022/05/06 09:19:13;;;;;;;10.35;8.55;;;15.80;99.90;;;;;;5032615;28;20049;-64
2022/05/06 09:22:01;;;;;;;9.15;7.60;;;16.20;99.90;;;;;;5032158;28;20064;-65
2022/05/06 09:24:28;;;;;;;9.23;7.93;;;16.30;99.90;;;;;;5032619;28;20069;-63
2022/05/06 09:26:57;;;;;;;11.27;7.90;;;16.40;99.90;;;;;;5031409;28;20053;-66
2022/05/06 09:29:41;;;;;;;9.13;7.65;;;16.50;99.90;;;;;;5032507;28;20088;-64
2022/05/06 09:32:27;;;;;;;8.65;7.13;;;16.70;99.90;;;;;;5031343;28;20057;-63
2022/05/06 09:34:56;;;;;;;8.90;7.53;;;16.90;99.90;;;;;;5033177;28;20398;-64
2022/05/06 09:37:42;;;;;;;9.35;7.63;;;17.20;99.90;;;;;;5033846;28;20348;-64
2022/05/06 09:40:12;;;;;;;8.20;6.10;;;17.50;99.90;;;;;;5032239;28;20042;-65
2022/05/06 09:42:40;;;;;;;9.57;6.95;;;17.50;99.90;;;;;;5031457;28;20410;-65
2022/05/06 09:45:07;;;;;;;9.02;7.63;;;17.60;99.90;;;;;;5031533;28;20101;-64
2022/05/06 09:47:35;;;;;;;9.32;7.95;;;17.70;99.90;;;;;;5026816;28;20152;-65
2022/05/06 09:50:03;;;;;;;10.05;7.60;;;17.90;99.90;;;;;;5031254;28;20045;-64
2022/05/06 09:52:28;;;;;;;11.43;7.60;;;18.20;99.90;;;;;;5031772;28;20049;-63
2022/05/06 09:54:56;;;;;;;10.77;8.23;;;18.40;99.90;;;;;;5030701;28;20099;-62
2022/05/06 09:57:21;;;;;;;10.13;7.32;;;18.50;99.90;;;;;;5030220;28;20045;-63
2022/05/06 09:59:47;;;;;;;5.55;4.95;;;18.60;99.90;;;;;;5033301;28;20126;-63
2022/05/06 10:02:13;;;;;;;6.85;5.47;;;18.60;99.90;;;;;;5015436;28;20045;-62
2022/05/06 10:04:39;;;;;;;5.75;4.57;;;18.70;99.90;;;;;;5032109;28;20050;-62
2022/05/06 10:07:13;;;;;;;4.97;4.28;;;18.80;99.90;;;;;;5031811;28;20060;-63
2022/05/06 10:09:56;;;;;;;4.35;3.95;;;18.80;99.90;;;;;;5031853;28;20115;-65
2022/05/06 10:12:22;;;;;;;;;;;18.70;99.00;;;;;;5030001;28;20387;-62
2022/05/06 10:14:50;;;;;;;4.85;4.10;;;18.50;95.70;;;;;;5033488;28;19925;-64
2022/05/06 10:17:48;;;;;;;4.32;3.92;;;18.40;99.90;;;;;;5032870;28;20068;-63
2022/05/06 10:20:36;;;;;;;4.28;3.88;;;18.50;99.90;;;;;;5029153;28;20147;-63
2022/05/06 10:23:07;;;;;;;4.47;4.07;;;18.50;99.90;;;;;;5032942;28;20065;-63
2022/05/06 10:25:42;;;;;;;8.93;4.25;;;18.40;99.90;;;;;;5032165;28;20048;-63
2022/05/06 10:34:11;;;;;;;6.00;4.40;;;18.90;99.90;;;;;;5029244;28;20077;-64
2022/05/06 10:36:41;;;;;;;5.53;5.03;;;18.90;99.90;;;;;;5024820;28;20057;-63
2022/05/06 10:39:26;;;;;;;6.07;5.57;;;18.90;99.90;;;;;;5031931;28;20415;-64
2022/05/06 10:41:59;;;;;;;6.40;5.40;;;18.90;99.90;;;;;;5030687;28;20053;-62
2022/05/06 10:44:50;;;;;;;6.00;5.47;;;18.80;99.90;;;;;;5032769;28;20108;-63
2022/05/06 10:47:15;;;;;;;6.78;6.07;;;18.90;99.90;;;;;;5032412;28;20057;-65
2022/05/06 10:49:46;;;;;;;5.80;5.30;;;18.90;99.90;;;;;;5025930;28;21757;-64
2022/05/06 10:52:22;;;;;;;6.32;5.80;;;19.00;99.90;;;;;;5031769;28;20136;-62
2022/05/06 10:54:49;;;;;;;6.38;5.45;;;19.00;99.90;;;;;;5031666;28;20140;-63
2022/05/06 10:57:17;;;;;;;6.70;6.10;;;19.10;99.90;;;;;;5028999;28;20088;-64
2022/05/06 11:00:04;;;;;;;6.03;5.53;;;19.00;99.90;;;;;;5022408;28;20053;-63
2022/05/06 11:02:32;;;;;;;6.32;5.75;;;19.00;99.90;;;;;;5031529;28;20076;-65
2022/05/06 11:05:03;;;;;;;5.80;5.18;;;19.00;99.90;;;;;;5031657;28;20060;-65
2022/05/06 11:07:31;;;;;;;6.43;5.33;;;18.80;99.90;;;;;;5032161;28;20049;-63
2022/05/06 11:09:57;;;;;;;6.78;5.40;;;18.70;99.90;;;;;;5035378;28;20056;-64
2022/05/06 11:12:34;;;;;;;5.78;5.28;;;18.90;99.90;;;;;;5034636;28;20472;-63
2022/05/06 11:15:05;;;;;;;5.40;4.90;;;19.00;99.90;;;;;;5025396;28;20070;-63
2022/05/06 11:17:32;;;;;;;4.65;4.20;;;19.20;99.90;;;;;;5031826;28;20143;-64
2022/05/06 11:20:02;;;;;;;4.35;4.03;;;19.50;99.90;;;;;;5033724;28;20057;-64
2022/05/06 11:22:28;;;;;;;4.45;4.05;;;19.60;99.90;;;;;;5032741;28;20050;-64
2022/05/06 11:24:57;;;;;;;5.03;4.63;;;19.90;99.90;;;;;;5035114;28;20053;-63
2022/05/06 11:27:23;;;;;;;5.65;4.32;;;20.10;99.90;;;;;;5034578;28;20068;-65
2022/05/06 11:29:51;;;;;;;5.50;5.00;;;20.10;99.90;;;;;;5032515;28;20053;-62
2022/05/06 11:32:17;;;;;;;6.00;5.40;;;20.10;99.90;;;;;;5031593;28;20060;-63
2022/05/06 11:35:10;;;;;;;4.70;4.22;;;20.20;99.90;;;;;;5034258;28;20128;-62
2022/05/06 11:37:39;;;;;;;4.75;4.25;;;20.10;86.70;;;;;;5028030;28;20065;-65
2022/05/06 11:42:50;;;;;;;5.00;4.57;;;20.20;99.90;;;;;;5028844;28;20111;-63
2022/05/06 11:48:12;;;;;;;7.22;4.60;;;20.30;98.80;;;;;;5030562;28;20054;-65
2022/05/06 11:50:39;;;;;;;5.55;4.55;;;20.40;99.30;;;;;;5028281;28;20053;-63
2022/05/06 11:53:13;;;;;;;5.20;4.70;;;20.50;98.70;;;;;;5027795;28;20073;-62
2022/05/06 11:55:42;;;;;;;4.38;2.97;;;20.50;91.60;;;;;;5045073;28;20084;-64
2022/05/06 11:58:12;;;;;;;3.25;2.42;;;20.50;95.90;;;;;;5031815;28;20049;-64
2022/05/06 12:00:38;;;;;;;3.75;2.65;;;20.70;90.60;;;;;;5030022;28;20448;-63
2022/05/06 12:03:06;;;;;;;2.30;2.20;;;21.00;79.10;;;;;;5030855;28;20037;-65
2022/05/06 12:05:33;;;;;;;2.90;2.03;;;21.10;72.60;;;;;;5032331;28;20053;-66
2022/05/06 12:08:00;;;;;;;2.72;2.53;;;21.10;71.40;;;;;;5034513;28;20092;-64
2022/05/06 12:10:27;;;;;;;5.93;2.30;;;21.10;71.40;;;;;;5034115;28;20083;-64
2022/05/06 12:12:58;;;;;;;2.17;1.85;;;21.10;70.20;;;;;;5034152;28;20056;-63
2022/05/06 12:15:38;;;;;;;2.65;1.67;;;21.00;68.40;;;;;;5033446;28;20124;-64
2022/05/06 12:18:18;;;;;;;6.93;1.58;;;21.00;63.00;;;;;;5014641;28;20384;-63
2022/05/06 12:20:46;;;;;;;2.25;1.40;;;21.00;65.70;;;;;;5030508;28;20480;-63
2022/05/06 12:23:12;;;;;;;4.57;1.80;;;20.80;64.80;;;;;;5033520;28;20046;-63
2022/05/06 12:25:40;;;;;;;3.05;1.58;;;20.90;65.40;;;;;;5033840;28;20045;-65
2022/05/06 12:28:13;;;;;;;2.15;1.35;;;20.80;64.40;;;;;;5033231;28;20536;-66
2022/05/06 12:30:39;;;;;;;3.85;1.48;;;20.80;64.40;;;;;;5033602;28;20053;-62
2022/05/06 12:33:10;;;;;;;1.52;1.40;;;20.90;65.60;;;;;;5034691;28;20441;-66
2022/05/06 12:35:57;;;;;;;3.70;1.60;;;21.00;65.70;;;;;;5032165;28;20096;-64
2022/05/06 12:38:38;;;;;;;3.53;1.70;;;21.20;67.80;;;;;;5029513;28;20111;-64
2022/05/06 12:41:16;;;;;;;4.40;1.85;;;21.20;68.90;;;;;;5027722;28;20061;-64
2022/05/06 12:43:41;;;;;;;3.33;1.88;;;21.30;64.90;;;;;;5034275;28;20049;-63
2022/05/06 12:46:07;;;;;;;3.38;2.00;;;21.20;66.10;;;;;;5030771;28;20057;-64
2022/05/06 12:51:17;;;;;;;2.70;2.10;;;21.20;66.10;;;;;;5032057;28;20053;-64
2022/05/06 12:53:42;;;;;;;3.92;2.05;;;21.20;66.40;;;;;;5030765;28;20053;-63
2022/05/06 12:56:17;;;;;;;3.60;2.00;;;21.30;67.10;;;;;;5029940;28;20379;-64
2022/05/06 12:58:43;;;;;;;3.78;2.00;;;21.30;66.60;;;;;;5024204;28;20056;-63
2022/05/06 13:01:08;;;;;;;3.15;1.90;;;21.40;68.10;;;;;;5030806;28;20046;-64
2022/05/06 13:03:34;;;;;;;2.63;2.08;;;21.50;70.00;;;;;;5032565;28;20517;-63
2022/05/06 13:06:00;;;;;;;2.08;1.88;;;21.60;70.00;;;;;;5030884;28;20180;-64
2022/05/06 13:08:27;;;;;;;2.83;2.58;;;21.70;69.40;;;;;;5015016;28;20095;-64
2022/05/06 13:10:52;;;;;;;2.90;2.15;;;21.70;67.70;;;;;;5032611;28;20432;-65
2022/05/06 13:13:18;;;;;;;5.80;2.00;;;21.90;66.50;;;;;;5034158;28;20041;-64
2022/05/06 13:15:44;;;;;;;4.82;2.10;;;22.00;66.00;;;;;;5032854;28;20053;-64
2022/05/06 13:18:10;;;;;;;4.30;2.78;;;22.20;66.20;;;;;;5033424;28;20916;-64
2022/05/06 13:20:36;;;;;;;5.88;2.50;;;22.20;66.10;;;;;;5031395;28;20462;-63
2022/05/06 13:23:01;;;;;;;3.50;2.60;;;22.40;67.70;;;;;;5032974;28;20065;-65
2022/05/06 13:25:28;;;;;;;5.75;2.58;;;22.60;67.10;;;;;;5032849;28;20135;-65
2022/05/06 13:27:54;;;;;;;3.30;2.00;;;22.70;65.20;;;;;;5032660;28;20363;-65